Time;durP1;ratioP1;P1;durP2;ratioP2;P2;SDS_P1;SDS_P2;PMS_P1;PMS_P2;Temp;Humidity;BMP_temperature;BMP_pressure;BME280_temperature;BME280_humidity;BME280_pressure;Samples;Min_cycle;Max_cycle;Signal;HPM_P1;HPM_P2
2022/02/10 00:14:27;;;;;;;24.60;17.90;;;5.20;99.90;;;;;;5013925;28;20250;-68
2022/02/10 00:35:40;;;;;;;30.17;17.13;;;4.80;99.90;;;;;;5013872;28;20653;-68
2022/02/10 00:38:06;;;;;;;25.70;17.47;;;4.70;99.90;;;;;;5013470;28;20208;-68
2022/02/10 00:40:34;;;;;;;25.77;16.97;;;4.60;99.90;;;;;;5012362;28;20232;-69
2022/02/10 00:43:02;;;;;;;23.60;16.87;;;4.50;99.90;;;;;;5012785;28;20291;-68
2022/02/10 00:45:30;;;;;;;29.83;18.40;;;4.50;99.90;;;;;;5013640;28;20173;-68
2022/02/10 00:48:00;;;;;;;28.90;16.40;;;4.40;99.90;;;;;;5012005;28;20176;-68
2022/02/10 00:50:27;;;;;;;24.97;16.97;;;4.40;99.90;;;;;;5012243;28;20192;-68
2022/02/10 00:53:02;;;;;;;23.33;18.07;;;4.40;99.90;;;;;;5012725;28;20194;-68
2022/02/10 00:55:30;;;;;;;22.63;17.33;;;4.30;99.90;;;;;;5013498;28;20641;-68
2022/02/10 00:57:57;;;;;;;30.33;18.20;;;4.40;99.90;;;;;;5013065;28;20172;-68
2022/02/10 01:11:41;;;;;;;27.27;16.73;;;4.10;99.90;;;;;;5013106;28;20203;-68
2022/02/10 01:14:19;;;;;;;23.33;15.47;;;4.10;99.90;;;;;;5012200;28;20288;-68
2022/02/10 01:30:11;;;;;;;26.17;17.10;;;3.70;99.90;;;;;;4993315;28;20188;-68
2022/02/10 01:32:38;;;;;;;24.83;17.10;;;3.70;99.90;;;;;;4991645;28;20172;-68
2022/02/10 01:35:07;;;;;;;31.03;17.27;;;3.60;99.90;;;;;;5010698;28;20180;-68
2022/02/10 01:37:35;;;;;;;24.17;18.53;;;3.60;99.90;;;;;;5010999;28;20176;-68
2022/02/10 01:40:09;;;;;;;25.97;18.33;;;3.60;99.90;;;;;;5010893;28;20188;-67
2022/02/10 02:04:17;;;;;;;25.23;16.67;;;3.50;99.90;;;;;;5011550;28;20258;-67
2022/02/10 02:06:45;;;;;;;21.63;16.50;;;3.40;99.90;;;;;;5012321;28;20741;-68
2022/02/10 02:09:14;;;;;;;25.57;17.03;;;3.40;99.90;;;;;;5011750;28;20786;-67
2022/02/10 02:11:41;;;;;;;23.90;17.77;;;3.40;99.90;;;;;;5012038;28;20192;-67
2022/02/10 02:14:19;;;;;;;26.03;18.70;;;3.30;99.90;;;;;;5011593;28;20895;-67
2022/02/10 02:16:45;;;;;;;22.17;17.13;;;3.30;99.90;;;;;;5012109;28;20219;-68
2022/02/10 02:19:11;;;;;;;19.33;16.97;;;3.30;99.90;;;;;;5010322;28;20660;-69
2022/02/10 02:21:41;;;;;;;22.57;19.20;;;3.20;99.90;;;;;;5011931;28;20200;-69
2022/02/10 02:24:09;;;;;;;23.53;18.07;;;3.10;99.90;;;;;;5010183;28;20205;-68
2022/02/10 02:26:35;;;;;;;21.67;18.27;;;3.10;99.90;;;;;;5010891;28;20176;-68
2022/02/10 02:29:05;;;;;;;21.63;17.17;;;3.10;99.90;;;;;;5011433;28;20274;-69
2022/02/10 02:31:39;;;;;;;22.10;16.20;;;3.00;99.90;;;;;;5011909;28;20628;-68
2022/02/10 03:06:49;;;;;;;25.53;17.97;;;2.60;99.90;;;;;;5015504;28;20168;-67
2022/02/10 03:09:22;;;;;;;24.00;16.53;;;2.50;99.90;;;;;;5015035;28;20633;-67
2022/02/10 03:11:47;;;;;;;21.87;15.50;;;2.50;99.90;;;;;;5014067;28;20188;-67
2022/02/10 03:14:21;;;;;;;23.70;17.23;;;2.50;99.90;;;;;;5014796;28;20641;-68
2022/02/10 03:19:37;;;;;;;21.30;17.23;;;2.50;99.90;;;;;;5014739;28;20267;-68
2022/02/10 04:06:35;;;;;;;24.40;14.47;;;2.90;99.90;;;;;;5014063;28;20645;-67
2022/02/10 04:17:44;;;;;;;21.97;15.73;;;2.90;99.90;;;;;;5003491;28;20584;-67
2022/02/10 04:20:07;;;;;;;18.53;14.07;;;2.90;99.90;;;;;;4994196;28;20193;-67
2022/02/10 04:22:50;;;;;;;21.90;16.27;;;2.80;99.90;;;;;;4997000;28;20662;-68
2022/02/10 05:00:31;;;;;;;15.93;14.23;;;2.80;99.90;;;;;;4992147;28;20223;-66
2022/02/10 05:04:24;;;;;;;16.73;14.23;;;2.90;99.90;;;;;;5012460;28;20200;-68
2022/02/10 05:34:56;;;;;;;17.83;13.13;;;3.80;99.90;;;;;;5012896;28;20640;-67
2022/02/10 05:37:25;;;;;;;22.47;13.47;;;3.80;99.90;;;;;;4993138;28;20173;-67
2022/02/10 05:39:53;;;;;;;15.30;13.13;;;3.90;99.90;;;;;;4992954;28;20168;-68
2022/02/10 05:47:49;;;;;;;15.57;13.63;;;4.00;99.90;;;;;;4993109;28;20204;-67
2022/02/10 05:53:16;;;;;;;17.07;12.03;;;4.20;99.90;;;;;;5012142;28;20254;-66
2022/02/10 05:58:49;;;;;;;15.97;14.43;;;4.20;99.90;;;;;;5011170;28;20275;-68
2022/02/10 07:14:31;;;;;;;20.70;14.57;;;5.10;99.90;;;;;;5010895;28;20184;-68
2022/02/10 07:46:23;;;;;;;24.97;14.53;;;5.50;99.90;;;;;;5014042;28;20222;-67
2022/02/10 07:50:04;;;;;;;20.57;14.60;;;5.50;99.90;;;;;;5014749;28;20596;-68
2022/02/10 08:57:09;;;;;;;19.73;13.57;;;8.50;99.90;;;;;;5013414;28;20188;-67
2022/02/10 09:05:00;;;;;;;15.30;12.47;;;8.20;99.90;;;;;;5012652;28;20267;-67
2022/02/10 09:12:47;;;;;;;15.20;12.77;;;8.10;99.90;;;;;;5012989;28;20549;-68
2022/02/10 09:15:45;;;;;;;16.20;14.70;;;8.10;99.90;;;;;;5012436;28;20177;-67
2022/02/10 09:18:59;;;;;;;13.63;12.33;;;8.00;99.90;;;;;;5012618;28;20172;-67
2022/02/10 09:58:38;;;;;;;13.83;12.43;;;8.80;99.90;;;;;;5010582;28;20175;-68
2022/02/10 10:01:32;;;;;;;14.70;12.03;;;8.80;99.90;;;;;;5012260;28;20219;-67
2022/02/10 10:04:07;;;;;;;13.43;12.13;;;8.90;99.90;;;;;;5011685;28;20212;-68
2022/02/10 10:07:01;;;;;;;12.73;11.53;;;8.90;99.90;;;;;;5011955;28;20218;-68
2022/02/10 10:50:15;;;;;;;12.53;10.97;;;9.20;99.90;;;;;;5011438;28;20195;-67
2022/02/10 10:57:23;;;;;;;12.97;11.63;;;9.10;99.90;;;;;;5010776;28;20176;-68
2022/02/10 11:39:16;;;;;;;12.23;10.77;;;8.70;99.90;;;;;;5014864;28;20171;-67
2022/02/10 11:45:50;;;;;;;12.97;11.67;;;8.50;99.90;;;;;;5014348;28;20674;-67
2022/02/10 14:14:14;;;;;;;8.33;7.70;;;7.40;99.90;;;;;;5011856;28;20176;-67
2022/02/10 14:17:01;;;;;;;8.20;7.63;;;7.30;99.90;;;;;;5010691;28;20184;-68
2022/02/10 14:22:24;;;;;;;7.93;7.40;;;7.20;99.90;;;;;;5011797;28;20192;-67
2022/02/10 14:27:34;;;;;;;8.40;7.90;;;7.30;99.90;;;;;;5011738;28;20195;-66
2022/02/10 14:30:00;;;;;;;8.17;7.57;;;7.40;99.90;;;;;;5011409;28;20187;-67
2022/02/10 14:32:31;;;;;;;12.70;11.60;;;7.50;99.90;;;;;;5009279;28;20195;-67
2022/02/10 14:35:07;;;;;;;12.67;11.57;;;7.50;99.90;;;;;;5000119;28;20676;-66
2022/02/10 14:37:50;;;;;;;10.63;9.83;;;7.60;99.90;;;;;;5011790;28;20168;-67
2022/02/10 15:14:17;;;;;;;8.07;7.47;;;8.00;99.90;;;;;;5016983;28;20263;-67
2022/02/10 16:17:35;;;;;;;11.03;9.93;;;7.60;99.90;;;;;;5013753;28;20532;-67
2022/02/10 16:20:07;;;;;;;12.20;11.03;;;7.60;99.90;;;;;;5013668;28;20235;-67
2022/02/10 16:22:38;;;;;;;11.63;10.63;;;7.60;99.90;;;;;;5012572;28;20188;-67
2022/02/10 16:25:08;;;;;;;10.73;9.73;;;7.60;99.90;;;;;;5012034;28;20620;-67
2022/02/10 16:27:35;;;;;;;12.47;11.23;;;7.50;99.90;;;;;;5011878;28;20271;-67
2022/02/10 16:30:09;;;;;;;16.80;15.10;;;7.50;99.90;;;;;;5009839;28;20415;-67
2022/02/10 16:32:35;;;;;;;14.73;13.20;;;7.50;99.90;;;;;;5011045;28;20230;-68
2022/02/10 16:35:03;;;;;;;12.20;11.00;;;7.50;99.90;;;;;;5009118;28;20190;-68
2022/02/10 16:37:28;;;;;;;12.63;11.50;;;7.50;99.90;;;;;;5009850;28;20681;-67
2022/02/10 16:39:54;;;;;;;16.13;10.67;;;7.50;99.90;;;;;;5011790;28;20180;-67
2022/02/10 16:42:20;;;;;;;12.80;11.17;;;7.50;99.90;;;;;;5008196;28;20239;-67
2022/02/10 16:44:47;;;;;;;12.73;11.43;;;7.40;99.90;;;;;;5013339;28;20216;-67
2022/02/10 16:47:14;;;;;;;13.93;12.43;;;7.30;99.90;;;;;;5012418;28;20172;-67
2022/02/10 16:49:47;;;;;;;12.80;11.33;;;7.40;99.90;;;;;;5010991;28;20172;-67
2022/02/10 16:52:20;;;;;;;12.87;11.43;;;7.30;99.90;;;;;;5024775;28;20211;-67
2022/02/10 16:54:49;;;;;;;13.53;12.13;;;7.30;99.90;;;;;;4993971;28;20185;-67
2022/02/10 16:57:33;;;;;;;12.73;11.43;;;7.30;99.90;;;;;;5011580;28;20743;-67
2022/02/10 17:02:50;;;;;;;27.20;18.77;;;7.30;99.90;;;;;;5013331;28;20184;-67
2022/02/10 17:05:30;;;;;;;17.73;15.33;;;7.40;99.90;;;;;;5012275;28;21485;-67
2022/02/10 17:27:10;;;;;;;15.70;12.67;;;7.30;99.90;;;;;;5011948;28;20230;-66
2022/02/10 17:46:17;;;;;;;13.37;11.80;;;6.90;99.90;;;;;;4994158;28;20181;-67
2022/02/10 17:53:54;;;;;;;14.60;12.93;;;7.00;99.90;;;;;;5011928;28;20283;-67
2022/02/10 17:56:21;;;;;;;16.17;12.73;;;7.00;99.90;;;;;;5012233;28;20175;-67
2022/02/10 17:58:48;;;;;;;14.30;13.00;;;7.00;99.90;;;;;;5010995;28;20665;-66
2022/02/10 18:01:14;;;;;;;15.10;13.10;;;7.10;99.90;;;;;;5010421;28;20223;-66
2022/02/10 18:03:40;;;;;;;15.27;13.27;;;7.10;99.90;;;;;;5011643;28;20208;-67
2022/02/10 18:08:44;;;;;;;15.63;13.30;;;7.10;99.90;;;;;;5011990;28;20172;-67
2022/02/10 18:16:28;;;;;;;21.50;15.50;;;6.90;99.90;;;;;;4996792;28;20319;-67
2022/02/10 18:19:02;;;;;;;19.10;15.80;;;7.00;99.90;;;;;;5010328;28;20234;-67
2022/02/10 18:29:19;;;;;;;20.03;16.60;;;7.00;99.90;;;;;;5011396;28;20180;-67
2022/02/10 19:01:43;;;;;;;18.80;15.53;;;6.80;99.90;;;;;;5010298;28;20191;-67
2022/02/10 19:10:14;;;;;;;16.80;12.47;;;6.30;99.90;;;;;;5011181;28;20169;-67
2022/02/10 19:12:47;;;;;;;18.87;12.87;;;6.20;99.90;;;;;;5010019;28;20191;-67
2022/02/10 19:15:21;;;;;;;14.90;10.93;;;6.20;99.90;;;;;;5011252;28;20292;-67
2022/02/10 19:17:48;;;;;;;12.33;11.13;;;6.10;99.90;;;;;;5011413;28;20638;-67
2022/02/10 19:20:15;;;;;;;14.33;10.93;;;6.10;99.90;;;;;;5011383;28;20626;-67
2022/02/10 19:22:43;;;;;;;12.70;10.47;;;6.00;99.90;;;;;;5008963;28;20234;-68
2022/02/10 19:25:12;;;;;;;11.87;10.57;;;6.00;99.90;;;;;;5010322;28;20200;-67
2022/02/10 19:27:40;;;;;;;12.87;11.57;;;6.00;99.90;;;;;;4990332;28;20192;-67
2022/02/10 19:30:08;;;;;;;12.33;10.97;;;6.00;99.90;;;;;;4991661;28;20181;-67
2022/02/10 19:32:35;;;;;;;15.80;12.40;;;5.90;99.90;;;;;;5011927;28;20237;-67
2022/02/10 19:35:00;;;;;;;17.30;12.83;;;5.90;99.90;;;;;;5012800;28;20724;-67
2022/02/10 19:37:29;;;;;;;13.03;11.73;;;5.90;99.90;;;;;;5013592;28;20183;-68
2022/02/10 19:40:00;;;;;;;14.17;12.80;;;6.00;99.90;;;;;;5013250;28;20219;-67
2022/02/10 19:42:30;;;;;;;10.20;9.30;;;5.90;99.90;;;;;;5014601;28;20199;-67
2022/02/10 19:44:59;;;;;;;8.47;7.80;;;5.40;99.90;;;;;;5014474;28;20218;-67
2022/02/10 19:47:26;;;;;;;8.60;7.90;;;5.00;99.90;;;;;;5014555;28;20184;-67
2022/02/10 19:49:52;;;;;;;8.07;7.50;;;4.70;99.90;;;;;;5014345;28;20226;-67
2022/02/10 19:52:18;;;;;;;7.50;7.10;;;4.50;99.90;;;;;;5012883;28;20678;-67
2022/02/10 19:54:49;;;;;;;7.87;7.37;;;4.40;99.90;;;;;;5013231;28;20180;-67
2022/02/10 19:57:17;;;;;;;7.67;7.20;;;4.30;99.90;;;;;;5014363;28;20184;-67
2022/02/10 19:59:43;;;;;;;7.23;6.83;;;4.30;99.90;;;;;;5013484;28;20180;-67
2022/02/10 20:02:09;;;;;;;7.67;7.17;;;4.40;99.90;;;;;;5012112;28;20254;-67
2022/02/10 20:04:35;;;;;;;8.63;8.03;;;4.40;99.90;;;;;;5012407;28;20658;-67
2022/02/10 20:07:01;;;;;;;8.70;8.10;;;4.50;99.90;;;;;;5014086;28;20176;-67
2022/02/10 20:09:27;;;;;;;8.40;7.90;;;4.50;99.90;;;;;;5013126;28;20312;-68
2022/02/10 20:11:54;;;;;;;9.10;8.57;;;4.50;99.90;;;;;;5013742;28;20208;-68
2022/02/10 20:14:23;;;;;;;8.67;7.87;;;4.60;99.90;;;;;;5011996;28;20180;-71
2022/02/10 20:16:50;;;;;;;8.80;7.97;;;4.60;99.90;;;;;;5013431;28;20191;-68
2022/02/10 20:19:16;;;;;;;8.40;7.60;;;4.60;99.90;;;;;;5012726;28;20192;-68
2022/02/10 20:21:42;;;;;;;7.70;7.20;;;4.50;99.90;;;;;;5012215;28;20636;-67
2022/02/10 20:24:07;;;;;;;8.27;7.53;;;4.50;99.90;;;;;;5012155;28;20219;-68
2022/02/10 20:26:33;;;;;;;9.10;8.50;;;4.50;99.90;;;;;;5012920;28;20176;-68
2022/02/10 20:28:59;;;;;;;13.03;12.23;;;4.40;99.90;;;;;;5013579;28;20278;-67
2022/02/10 20:31:28;;;;;;;9.27;8.37;;;4.50;99.90;;;;;;5012843;28;20668;-68
2022/02/10 20:33:53;;;;;;;9.30;8.50;;;4.50;99.90;;;;;;5010071;28;20192;-68
2022/02/10 20:36:19;;;;;;;9.30;8.40;;;4.50;99.90;;;;;;5012587;28;20184;-67
2022/02/10 20:38:48;;;;;;;10.40;9.23;;;4.60;99.90;;;;;;5013948;28;20192;-68
2022/02/10 20:41:17;;;;;;;9.00;8.50;;;4.50;99.90;;;;;;5012398;28;20222;-68
2022/02/10 20:43:45;;;;;;;8.07;7.57;;;4.40;99.90;;;;;;5012910;28;20565;-67
2022/02/10 20:46:14;;;;;;;8.10;7.60;;;4.40;99.90;;;;;;5013800;28;20204;-67
2022/02/10 20:48:42;;;;;;;7.90;7.50;;;4.40;99.90;;;;;;5013575;28;20180;-67
2022/02/10 20:51:10;;;;;;;8.00;7.57;;;4.30;99.90;;;;;;5013484;28;20184;-67
2022/02/10 20:53:38;;;;;;;9.27;8.67;;;4.20;99.90;;;;;;5012147;28;20660;-68
2022/02/10 20:56:06;;;;;;;13.57;8.87;;;4.20;99.90;;;;;;5012866;28;20263;-68
2022/02/10 20:58:32;;;;;;;7.60;7.17;;;4.20;99.90;;;;;;5013432;28;20176;-67
2022/02/10 21:01:00;;;;;;;8.63;7.83;;;4.20;99.90;;;;;;5012883;28;20697;-68
2022/02/10 21:03:29;;;;;;;8.10;7.63;;;4.20;99.90;;;;;;5012954;28;20238;-67
2022/02/10 21:06:17;;;;;;;10.83;8.53;;;4.10;99.90;;;;;;5013109;28;20306;-68
2022/02/10 21:09:00;;;;;;;7.63;7.23;;;4.00;99.90;;;;;;5012083;28;20184;-68
2022/02/10 21:11:28;;;;;;;7.97;7.57;;;4.00;99.90;;;;;;5013001;28;20231;-67
2022/02/10 21:13:56;;;;;;;8.63;8.03;;;3.90;99.90;;;;;;5011414;28;20554;-67
2022/02/10 21:16:21;;;;;;;7.70;7.30;;;3.80;99.90;;;;;;5011550;28;20181;-67
2022/02/10 21:18:48;;;;;;;8.37;7.70;;;3.80;99.90;;;;;;5013088;28;20518;-68
2022/02/10 21:21:16;;;;;;;8.53;7.80;;;3.80;99.90;;;;;;5012876;28;20283;-68
2022/02/10 21:24:00;;;;;;;8.20;7.80;;;3.70;99.90;;;;;;5012767;28;20210;-67
2022/02/10 21:26:32;;;;;;;8.07;7.57;;;3.60;99.90;;;;;;5013113;28;20219;-67
2022/02/10 21:29:02;;;;;;;8.63;8.20;;;3.60;99.90;;;;;;5011751;28;20164;-68
2022/02/10 21:31:28;;;;;;;11.03;9.50;;;3.50;99.90;;;;;;5012635;28;20197;-68
2022/02/10 21:34:20;;;;;;;10.57;9.73;;;3.50;99.90;;;;;;5012567;28;20191;-68
2022/02/10 21:39:35;;;;;;;9.10;8.50;;;3.50;99.90;;;;;;5012806;28;20191;-68
2022/02/10 22:01:47;;;;;;;8.07;7.47;;;3.60;99.90;;;;;;5012695;28;20271;-68
2022/02/10 22:17:05;;;;;;;7.47;6.97;;;3.80;99.90;;;;;;5011339;28;20280;-68
2022/02/10 22:19:20;;;;;;;8.53;8.03;;;3.80;99.90;;;;;;5011748;28;20254;-68
2022/02/10 22:21:54;;;;;;;8.03;7.63;;;3.90;99.90;;;;;;5012150;28;20287;-68
2022/02/10 22:24:22;;;;;;;8.60;8.10;;;3.80;99.90;;;;;;5010618;28;20687;-68
2022/02/10 22:26:51;;;;;;;8.60;8.10;;;3.80;99.90;;;;;;5012014;28;20176;-68
2022/02/10 22:29:34;;;;;;;8.77;8.17;;;3.80;99.90;;;;;;5011756;28;20246;-68
2022/02/10 22:34:39;;;;;;;8.50;7.90;;;3.90;99.90;;;;;;5012771;28;20172;-68
2022/02/10 22:37:08;;;;;;;8.87;8.23;;;3.70;99.90;;;;;;5010666;28;20191;-68
2022/02/10 22:39:40;;;;;;;9.37;8.47;;;3.70;99.90;;;;;;5011973;28;20718;-67
2022/02/10 22:42:06;;;;;;;9.70;9.03;;;3.60;99.90;;;;;;5009845;28;20209;-68
2022/02/10 22:44:33;;;;;;;8.73;8.13;;;3.60;99.90;;;;;;5010616;28;20215;-66
2022/02/10 22:47:01;;;;;;;8.93;8.00;;;3.60;99.90;;;;;;5010276;28;20176;-67
2022/02/10 22:49:27;;;;;;;7.60;7.10;;;3.60;99.90;;;;;;5011807;28;20179;-68
2022/02/10 22:51:52;;;;;;;7.20;6.90;;;3.50;99.90;;;;;;5009950;28;20575;-67
2022/02/10 22:54:18;;;;;;;7.27;6.87;;;3.50;99.90;;;;;;5011588;28;20626;-67
2022/02/10 22:56:45;;;;;;;7.30;6.90;;;3.50;99.90;;;;;;5011626;28;20172;-68
2022/02/10 22:59:14;;;;;;;7.07;6.67;;;3.50;99.90;;;;;;5012324;28;20192;-69
2022/02/10 23:01:41;;;;;;;8.03;7.43;;;3.40;99.90;;;;;;5010987;28;20335;-66
2022/02/10 23:04:07;;;;;;;8.07;7.57;;;3.40;99.90;;;;;;5011590;28;20204;-69
2022/02/10 23:06:34;;;;;;;7.77;7.27;;;3.40;99.90;;;;;;5014309;28;20175;-69
2022/02/10 23:09:00;;;;;;;7.77;7.30;;;3.40;99.90;;;;;;5015946;28;20176;-68
2022/02/10 23:11:30;;;;;;;7.60;7.20;;;3.40;99.90;;;;;;5016245;28;20674;-69
2022/02/10 23:13:58;;;;;;;7.50;7.00;;;3.40;99.90;;;;;;5015831;28;20186;-69
2022/02/10 23:16:25;;;;;;;8.30;7.60;;;3.40;99.90;;;;;;5014910;28;20638;-69
2022/02/10 23:18:50;;;;;;;9.33;8.73;;;3.40;99.90;;;;;;5016101;28;20168;-68
2022/02/10 23:21:17;;;;;;;8.50;7.80;;;3.40;99.90;;;;;;5014544;28;20662;-68
2022/02/10 23:23:45;;;;;;;9.30;8.57;;;3.40;99.90;;;;;;5015747;28;20200;-68
2022/02/10 23:26:15;;;;;;;9.50;8.60;;;3.30;99.90;;;;;;5014075;28;20210;-69
2022/02/10 23:28:44;;;;;;;9.07;8.30;;;3.30;99.90;;;;;;5015403;28;20180;-69
2022/02/10 23:31:12;;;;;;;8.40;7.90;;;3.30;99.90;;;;;;5013918;28;20662;-69
2022/02/10 23:33:41;;;;;;;9.77;9.10;;;3.30;99.90;;;;;;5015015;28;20180;-67
2022/02/10 23:38:40;;;;;;;10.00;9.30;;;3.30;99.90;;;;;;5015176;28;20532;-67
2022/02/10 23:43:44;;;;;;;10.20;9.50;;;3.20;99.90;;;;;;5014925;28;20681;-66
2022/02/10 23:46:10;;;;;;;11.20;10.13;;;3.20;99.90;;;;;;5013160;28;20271;-67
2022/02/10 23:48:36;;;;;;;9.60;8.83;;;3.20;99.90;;;;;;5015010;28;20659;-67
2022/02/10 23:51:03;;;;;;;10.57;9.87;;;3.20;99.90;;;;;;5014381;28;20207;-69
2022/02/10 23:53:30;;;;;;;12.77;11.63;;;3.20;99.90;;;;;;5014025;28;20295;-69
2022/02/10 23:55:57;;;;;;;11.30;10.20;;;3.20;99.90;;;;;;5014786;28;20191;-68
